sensor_id;sensor_type;location;lat;lon;timestamp;temperature;humidity
6752;DHT22;3413;47.680;9.166;2023-09-30T00:00:13;23.40;76.70
6752;DHT22;3413;47.680;9.166;2023-09-30T00:05:16;23.40;76.60
6752;DHT22;3413;47.680;9.166;2023-09-30T00:10:21;23.30;76.50
6752;DHT22;3413;47.680;9.166;2023-09-30T00:15:24;23.20;76.60
6752;DHT22;3413;47.680;9.166;2023-09-30T00:20:27;23.10;76.60
6752;DHT22;3413;47.680;9.166;2023-09-30T00:25:29;23.00;76.60
6752;DHT22;3413;47.680;9.166;2023-09-30T00:30:31;23.00;76.70
6752;DHT22;3413;47.680;9.166;2023-09-30T00:35:33;22.90;76.60
6752;DHT22;3413;47.680;9.166;2023-09-30T00:40:35;22.80;76.50
6752;DHT22;3413;47.680;9.166;2023-09-30T00:45:37;22.70;76.50
6752;DHT22;3413;47.680;9.166;2023-09-30T00:50:41;22.70;76.60
6752;DHT22;3413;47.680;9.166;2023-09-30T00:55:44;22.70;76.80
6752;DHT22;3413;47.680;9.166;2023-09-30T01:00:47;22.70;76.80
6752;DHT22;3413;47.680;9.166;2023-09-30T01:05:49;22.60;76.70
6752;DHT22;3413;47.680;9.166;2023-09-30T01:10:51;22.60;76.80
6752;DHT22;3413;47.680;9.166;2023-09-30T01:15:53;22.60;76.80
6752;DHT22;3413;47.680;9.166;2023-09-30T01:20:57;22.50;76.80
6752;DHT22;3413;47.680;9.166;2023-09-30T01:26:10;22.40;76.80
6752;DHT22;3413;47.680;9.166;2023-09-30T01:31:13;22.40;77.00
6752;DHT22;3413;47.680;9.166;2023-09-30T01:36:15;22.40;77.10
6752;DHT22;3413;47.680;9.166;2023-09-30T01:41:19;22.30;76.90
6752;DHT22;3413;47.680;9.166;2023-09-30T01:46:21;22.30;76.90
6752;DHT22;3413;47.680;9.166;2023-09-30T01:51:24;22.20;76.90
6752;DHT22;3413;47.680;9.166;2023-09-30T01:56:26;22.20;76.90
6752;DHT22;3413;47.680;9.166;2023-09-30T02:01:28;22.20;77.00
6752;DHT22;3413;47.680;9.166;2023-09-30T02:06:30;22.20;77.00
6752;DHT22;3413;47.680;9.166;2023-09-30T02:11:32;22.20;77.10
6752;DHT22;3413;47.680;9.166;2023-09-30T02:16:34;22.20;77.10
6752;DHT22;3413;47.680;9.166;2023-09-30T02:21:39;22.10;77.00
6752;DHT22;3413;47.680;9.166;2023-09-30T02:26:42;22.20;77.20
6752;DHT22;3413;47.680;9.166;2023-09-30T02:31:44;22.10;77.10
6752;DHT22;3413;47.680;9.166;2023-09-30T02:36:46;22.10;77.20
6752;DHT22;3413;47.680;9.166;2023-09-30T02:41:48;22.10;77.20
6752;DHT22;3413;47.680;9.166;2023-09-30T02:46:52;22.00;77.20
6752;DHT22;3413;47.680;9.166;2023-09-30T02:51:54;21.90;77.20
6752;DHT22;3413;47.680;9.166;2023-09-30T02:56:56;21.80;77.40
6752;DHT22;3413;47.680;9.166;2023-09-30T03:01:58;21.70;77.40
6752;DHT22;3413;47.680;9.166;2023-09-30T03:07:00;21.70;77.40
6752;DHT22;3413;47.680;9.166;2023-09-30T03:12:03;21.70;77.40
6752;DHT22;3413;47.680;9.166;2023-09-30T03:17:06;21.70;77.40
6752;DHT22;3413;47.680;9.166;2023-09-30T03:22:13;21.60;77.40
6752;DHT22;3413;47.680;9.166;2023-09-30T03:27:15;21.70;77.60
6752;DHT22;3413;47.680;9.166;2023-09-30T03:32:17;21.70;77.70
6752;DHT22;3413;47.680;9.166;2023-09-30T03:37:19;21.70;77.60
6752;DHT22;3413;47.680;9.166;2023-09-30T03:42:22;21.70;77.60
6752;DHT22;3413;47.680;9.166;2023-09-30T03:47:24;21.70;77.60
6752;DHT22;3413;47.680;9.166;2023-09-30T03:52:26;21.70;77.60
6752;DHT22;3413;47.680;9.166;2023-09-30T03:57:33;21.80;78.40
6752;DHT22;3413;47.680;9.166;2023-09-30T04:02:36;21.70;77.70
6752;DHT22;3413;47.680;9.166;2023-09-30T04:07:38;21.70;77.70
6752;DHT22;3413;47.680;9.166;2023-09-30T04:12:40;21.60;77.70
6752;DHT22;3413;47.680;9.166;2023-09-30T04:17:42;21.50;77.90
6752;DHT22;3413;47.680;9.166;2023-09-30T04:22:45;21.50;77.90
6752;DHT22;3413;47.680;9.166;2023-09-30T04:27:51;21.60;77.90
6752;DHT22;3413;47.680;9.166;2023-09-30T04:32:53;21.50;77.80
6752;DHT22;3413;47.680;9.166;2023-09-30T04:37:56;21.50;77.80
6752;DHT22;3413;47.680;9.166;2023-09-30T04:43:03;21.60;77.90
6752;DHT22;3413;47.680;9.166;2023-09-30T04:48:05;21.60;77.90
6752;DHT22;3413;47.680;9.166;2023-09-30T04:53:07;21.60;77.90
6752;DHT22;3413;47.680;9.166;2023-09-30T04:58:11;21.60;77.90
6752;DHT22;3413;47.680;9.166;2023-09-30T05:03:14;21.50;77.90
6752;DHT22;3413;47.680;9.166;2023-09-30T05:08:16;21.40;77.90
6752;DHT22;3413;47.680;9.166;2023-09-30T05:13:18;21.50;78.00
6752;DHT22;3413;47.680;9.166;2023-09-30T05:18:21;21.50;78.00
6752;DHT22;3413;47.680;9.166;2023-09-30T05:23:23;21.40;78.00
6752;DHT22;3413;47.680;9.166;2023-09-30T05:28:25;21.20;78.00
6752;DHT22;3413;47.680;9.166;2023-09-30T05:33:28;21.20;78.10
6752;DHT22;3413;47.680;9.166;2023-09-30T05:38:31;21.20;78.20
6752;DHT22;3413;47.680;9.166;2023-09-30T05:43:33;21.20;78.20
6752;DHT22;3413;47.680;9.166;2023-09-30T05:48:36;21.20;78.10
6752;DHT22;3413;47.680;9.166;2023-09-30T05:53:38;21.10;78.20
6752;DHT22;3413;47.680;9.166;2023-09-30T05:58:43;21.20;78.10
6752;DHT22;3413;47.680;9.166;2023-09-30T06:03:46;21.20;78.20
6752;DHT22;3413;47.680;9.166;2023-09-30T06:08:48;21.20;78.30
6752;DHT22;3413;47.680;9.166;2023-09-30T06:13:51;21.20;78.30
6752;DHT22;3413;47.680;9.166;2023-09-30T06:18:54;21.10;78.40
6752;DHT22;3413;47.680;9.166;2023-09-30T06:23:56;21.10;78.40
6752;DHT22;3413;47.680;9.166;2023-09-30T06:28:58;21.10;78.40
6752;DHT22;3413;47.680;9.166;2023-09-30T06:34:01;21.10;78.50
6752;DHT22;3413;47.680;9.166;2023-09-30T06:39:04;21.20;78.60
6752;DHT22;3413;47.680;9.166;2023-09-30T06:44:07;21.20;78.50
6752;DHT22;3413;47.680;9.166;2023-09-30T06:49:09;21.30;78.70
6752;DHT22;3413;47.680;9.166;2023-09-30T06:54:12;21.30;78.70
6752;DHT22;3413;47.680;9.166;2023-09-30T06:59:14;21.30;78.80
6752;DHT22;3413;47.680;9.166;2023-09-30T07:04:16;21.40;78.90
6752;DHT22;3413;47.680;9.166;2023-09-30T07:09:18;21.50;79.00
6752;DHT22;3413;47.680;9.166;2023-09-30T07:14:22;21.50;79.00
6752;DHT22;3413;47.680;9.166;2023-09-30T07:19:24;21.60;79.20
6752;DHT22;3413;47.680;9.166;2023-09-30T07:24:26;21.70;79.30
6752;DHT22;3413;47.680;9.166;2023-09-30T07:29:28;21.80;79.50
6752;DHT22;3413;47.680;9.166;2023-09-30T07:34:30;21.90;79.50
6752;DHT22;3413;47.680;9.166;2023-09-30T07:39:32;21.90;79.40
6752;DHT22;3413;47.680;9.166;2023-09-30T07:44:34;21.90;79.50
6752;DHT22;3413;47.680;9.166;2023-09-30T07:49:38;21.90;79.60
6752;DHT22;3413;47.680;9.166;2023-09-30T07:54:41;22.00;79.40
6752;DHT22;3413;47.680;9.166;2023-09-30T07:59:44;22.00;79.20
6752;DHT22;3413;47.680;9.166;2023-09-30T08:04:46;22.00;79.30
6752;DHT22;3413;47.680;9.166;2023-09-30T08:09:49;22.10;79.50
6752;DHT22;3413;47.680;9.166;2023-09-30T08:14:51;22.10;79.60
6752;DHT22;3413;47.680;9.166;2023-09-30T08:19:53;22.20;80.00
6752;DHT22;3413;47.680;9.166;2023-09-30T08:24:55;22.40;80.50
6752;DHT22;3413;47.680;9.166;2023-09-30T08:29:58;22.70;80.80
6752;DHT22;3413;47.680;9.166;2023-09-30T08:35:02;23.10;80.70
6752;DHT22;3413;47.680;9.166;2023-09-30T08:40:08;23.30;80.10
6752;DHT22;3413;47.680;9.166;2023-09-30T08:45:15;23.50;80.30
6752;DHT22;3413;47.680;9.166;2023-09-30T08:50:19;23.90;81.20
6752;DHT22;3413;47.680;9.166;2023-09-30T08:55:21;24.40;82.10
6752;DHT22;3413;47.680;9.166;2023-09-30T09:00:23;25.10;82.20
6752;DHT22;3413;47.680;9.166;2023-09-30T09:05:26;25.60;82.50
6752;DHT22;3413;47.680;9.166;2023-09-30T09:10:28;26.00;82.30
6752;DHT22;3413;47.680;9.166;2023-09-30T09:15:30;26.10;82.70
6752;DHT22;3413;47.680;9.166;2023-09-30T09:20:32;26.30;83.50
6752;DHT22;3413;47.680;9.166;2023-09-30T09:25:39;26.50;82.80
6752;DHT22;3413;47.680;9.166;2023-09-30T09:30:41;26.70;82.40
6752;DHT22;3413;47.680;9.166;2023-09-30T09:35:48;26.70;81.20
6752;DHT22;3413;47.680;9.166;2023-09-30T09:40:50;26.40;80.90
6752;DHT22;3413;47.680;9.166;2023-09-30T09:45:52;26.20;80.80
6752;DHT22;3413;47.680;9.166;2023-09-30T09:50:57;26.00;80.70
6752;DHT22;3413;47.680;9.166;2023-09-30T09:56:00;25.80;80.80
6752;DHT22;3413;47.680;9.166;2023-09-30T10:01:02;25.90;81.00
6752;DHT22;3413;47.680;9.166;2023-09-30T10:06:05;26.00;81.70
6752;DHT22;3413;47.680;9.166;2023-09-30T10:11:10;26.10;81.30
6752;DHT22;3413;47.680;9.166;2023-09-30T10:21:38;26.40;81.00
6752;DHT22;3413;47.680;9.166;2023-09-30T10:26:41;26.70;81.10
6752;DHT22;3413;47.680;9.166;2023-09-30T10:31:50;26.70;80.90
6752;DHT22;3413;47.680;9.166;2023-09-30T10:36:52;26.80;80.80
6752;DHT22;3413;47.680;9.166;2023-09-30T10:41:55;27.10;80.60
6752;DHT22;3413;47.680;9.166;2023-09-30T10:52:23;27.50;80.30
6752;DHT22;3413;47.680;9.166;2023-09-30T10:57:28;27.60;79.90
6752;DHT22;3413;47.680;9.166;2023-09-30T11:02:30;27.60;78.60
6752;DHT22;3413;47.680;9.166;2023-09-30T11:07:41;27.50;78.40
6752;DHT22;3413;47.680;9.166;2023-09-30T11:12:56;27.30;78.10
6752;DHT22;3413;47.680;9.166;2023-09-30T11:18:13;27.20;78.40
6752;DHT22;3413;47.680;9.166;2023-09-30T11:23:16;27.30;78.10
6752;DHT22;3413;47.680;9.166;2023-09-30T11:28:18;27.40;78.40
6752;DHT22;3413;47.680;9.166;2023-09-30T11:33:20;27.50;78.60
6752;DHT22;3413;47.680;9.166;2023-09-30T11:38:24;27.70;78.70
6752;DHT22;3413;47.680;9.166;2023-09-30T11:43:26;27.80;78.80
6752;DHT22;3413;47.680;9.166;2023-09-30T11:48:29;27.90;78.90
6752;DHT22;3413;47.680;9.166;2023-09-30T11:53:32;28.00;79.00
6752;DHT22;3413;47.680;9.166;2023-09-30T11:58:37;28.00;79.00
6752;DHT22;3413;47.680;9.166;2023-09-30T12:03:42;28.10;79.00
6752;DHT22;3413;47.680;9.166;2023-09-30T12:08:44;28.10;78.90
6752;DHT22;3413;47.680;9.166;2023-09-30T12:13:47;28.20;78.90
6752;DHT22;3413;47.680;9.166;2023-09-30T12:18:50;28.40;78.60
6752;DHT22;3413;47.680;9.166;2023-09-30T12:23:53;28.40;78.40
6752;DHT22;3413;47.680;9.166;2023-09-30T12:28:55;28.50;78.30
6752;DHT22;3413;47.680;9.166;2023-09-30T12:33:58;28.50;78.30
6752;DHT22;3413;47.680;9.166;2023-09-30T12:39:01;28.70;78.20
6752;DHT22;3413;47.680;9.166;2023-09-30T12:44:12;28.80;78.20
6752;DHT22;3413;47.680;9.166;2023-09-30T12:49:15;28.80;78.40
6752;DHT22;3413;47.680;9.166;2023-09-30T12:54:17;28.70;78.30
6752;DHT22;3413;47.680;9.166;2023-09-30T12:59:20;28.80;78.30
6752;DHT22;3413;47.680;9.166;2023-09-30T13:04:26;28.70;77.80
6752;DHT22;3413;47.680;9.166;2023-09-30T13:09:29;28.70;77.90
6752;DHT22;3413;47.680;9.166;2023-09-30T13:14:31;28.60;77.50
6752;DHT22;3413;47.680;9.166;2023-09-30T13:19:33;28.30;77.70
6752;DHT22;3413;47.680;9.166;2023-09-30T13:24:34;28.40;77.60
6752;DHT22;3413;47.680;9.166;2023-09-30T13:29:41;28.70;77.40
6752;DHT22;3413;47.680;9.166;2023-09-30T13:34:43;28.80;77.10
6752;DHT22;3413;47.680;9.166;2023-09-30T13:39:45;28.90;76.80
6752;DHT22;3413;47.680;9.166;2023-09-30T13:44:47;28.70;76.50
6752;DHT22;3413;47.680;9.166;2023-09-30T13:49:49;28.70;76.40
6752;DHT22;3413;47.680;9.166;2023-09-30T13:54:51;28.70;76.30
6752;DHT22;3413;47.680;9.166;2023-09-30T13:59:53;28.50;76.40
6752;DHT22;3413;47.680;9.166;2023-09-30T14:04:55;28.40;76.50
6752;DHT22;3413;47.680;9.166;2023-09-30T14:09:58;28.50;76.30
6752;DHT22;3413;47.680;9.166;2023-09-30T14:15:00;28.40;76.10
6752;DHT22;3413;47.680;9.166;2023-09-30T14:20:02;28.30;76.10
6752;DHT22;3413;47.680;9.166;2023-09-30T14:25:08;28.40;75.80
6752;DHT22;3413;47.680;9.166;2023-09-30T14:30:10;28.30;75.70
6752;DHT22;3413;47.680;9.166;2023-09-30T14:35:13;28.20;75.70
6752;DHT22;3413;47.680;9.166;2023-09-30T14:40:15;28.10;75.80
6752;DHT22;3413;47.680;9.166;2023-09-30T14:45:18;28.10;75.70
6752;DHT22;3413;47.680;9.166;2023-09-30T14:50:19;28.10;75.60
6752;DHT22;3413;47.680;9.166;2023-09-30T14:55:22;28.10;75.30
6752;DHT22;3413;47.680;9.166;2023-09-30T15:00:24;28.10;75.30
6752;DHT22;3413;47.680;9.166;2023-09-30T15:05:28;28.10;75.30
6752;DHT22;3413;47.680;9.166;2023-09-30T15:10:30;28.10;75.30
6752;DHT22;3413;47.680;9.166;2023-09-30T15:15:36;28.00;75.10
6752;DHT22;3413;47.680;9.166;2023-09-30T15:20:39;27.90;75.00
6752;DHT22;3413;47.680;9.166;2023-09-30T15:25:43;27.90;75.10
6752;DHT22;3413;47.680;9.166;2023-09-30T15:30:45;27.90;75.10
6752;DHT22;3413;47.680;9.166;2023-09-30T15:35:47;27.80;74.90
6752;DHT22;3413;47.680;9.166;2023-09-30T15:40:56;27.80;74.90
6752;DHT22;3413;47.680;9.166;2023-09-30T15:45:59;27.90;74.80
6752;DHT22;3413;47.680;9.166;2023-09-30T15:51:02;27.90;74.60
6752;DHT22;3413;47.680;9.166;2023-09-30T15:56:04;27.80;74.60
6752;DHT22;3413;47.680;9.166;2023-09-30T16:01:06;27.80;74.40
6752;DHT22;3413;47.680;9.166;2023-09-30T16:06:09;27.80;74.30
6752;DHT22;3413;47.680;9.166;2023-09-30T16:11:11;27.60;74.40
6752;DHT22;3413;47.680;9.166;2023-09-30T16:16:13;27.50;74.20
6752;DHT22;3413;47.680;9.166;2023-09-30T16:21:15;27.50;74.10
6752;DHT22;3413;47.680;9.166;2023-09-30T16:26:17;27.40;74.00
6752;DHT22;3413;47.680;9.166;2023-09-30T16:31:19;27.40;74.00
6752;DHT22;3413;47.680;9.166;2023-09-30T16:36:21;27.40;73.90
6752;DHT22;3413;47.680;9.166;2023-09-30T16:41:23;27.40;73.70
6752;DHT22;3413;47.680;9.166;2023-09-30T16:46:25;27.30;73.60
6752;DHT22;3413;47.680;9.166;2023-09-30T16:51:27;27.30;73.60
6752;DHT22;3413;47.680;9.166;2023-09-30T16:56:29;27.10;73.50
6752;DHT22;3413;47.680;9.166;2023-09-30T17:01:31;26.90;73.60
6752;DHT22;3413;47.680;9.166;2023-09-30T17:06:33;26.70;73.50
6752;DHT22;3413;47.680;9.166;2023-09-30T17:11:35;26.50;73.40
6752;DHT22;3413;47.680;9.166;2023-09-30T17:16:37;26.40;73.40
6752;DHT22;3413;47.680;9.166;2023-09-30T17:21:40;26.30;73.30
6752;DHT22;3413;47.680;9.166;2023-09-30T17:26:42;26.00;73.30
6752;DHT22;3413;47.680;9.166;2023-09-30T17:31:44;25.90;73.30
6752;DHT22;3413;47.680;9.166;2023-09-30T17:36:46;25.70;73.30
6752;DHT22;3413;47.680;9.166;2023-09-30T17:41:50;25.50;73.30
6752;DHT22;3413;47.680;9.166;2023-09-30T17:46:52;25.20;73.30
6752;DHT22;3413;47.680;9.166;2023-09-30T17:51:54;25.00;73.50
6752;DHT22;3413;47.680;9.166;2023-09-30T17:56:56;24.70;73.40
6752;DHT22;3413;47.680;9.166;2023-09-30T18:01:58;24.50;73.40
6752;DHT22;3413;47.680;9.166;2023-09-30T18:07:00;24.40;73.40
6752;DHT22;3413;47.680;9.166;2023-09-30T18:12:02;24.30;73.40
6752;DHT22;3413;47.680;9.166;2023-09-30T18:17:04;24.10;73.30
6752;DHT22;3413;47.680;9.166;2023-09-30T18:22:06;23.90;73.20
6752;DHT22;3413;47.680;9.166;2023-09-30T18:27:08;23.90;73.20
6752;DHT22;3413;47.680;9.166;2023-09-30T18:32:10;23.80;73.00
6752;DHT22;3413;47.680;9.166;2023-09-30T18:37:12;23.80;73.00
6752;DHT22;3413;47.680;9.166;2023-09-30T18:42:15;23.60;72.90
6752;DHT22;3413;47.680;9.166;2023-09-30T18:47:17;23.50;73.00
6752;DHT22;3413;47.680;9.166;2023-09-30T18:52:19;23.30;72.90
6752;DHT22;3413;47.680;9.166;2023-09-30T18:57:22;23.10;72.90
6752;DHT22;3413;47.680;9.166;2023-09-30T19:02:24;23.00;73.00
6752;DHT22;3413;47.680;9.166;2023-09-30T19:07:27;22.80;72.90
6752;DHT22;3413;47.680;9.166;2023-09-30T19:12:29;22.70;72.90
6752;DHT22;3413;47.680;9.166;2023-09-30T19:17:31;22.70;73.00
6752;DHT22;3413;47.680;9.166;2023-09-30T19:22:33;22.50;72.80
6752;DHT22;3413;47.680;9.166;2023-09-30T19:27:35;22.40;72.90
6752;DHT22;3413;47.680;9.166;2023-09-30T19:32:37;22.30;73.00
6752;DHT22;3413;47.680;9.166;2023-09-30T19:37:40;22.20;73.20
6752;DHT22;3413;47.680;9.166;2023-09-30T19:42:42;22.10;73.10
6752;DHT22;3413;47.680;9.166;2023-09-30T19:47:44;22.00;73.00
6752;DHT22;3413;47.680;9.166;2023-09-30T19:52:46;21.90;73.00
6752;DHT22;3413;47.680;9.166;2023-09-30T19:57:48;21.80;72.90
6752;DHT22;3413;47.680;9.166;2023-09-30T20:02:51;21.80;73.00
6752;DHT22;3413;47.680;9.166;2023-09-30T20:07:53;21.70;73.00
6752;DHT22;3413;47.680;9.166;2023-09-30T20:12:55;21.50;73.00
6752;DHT22;3413;47.680;9.166;2023-09-30T20:17:57;21.50;73.10
6752;DHT22;3413;47.680;9.166;2023-09-30T20:22:59;21.40;73.10
6752;DHT22;3413;47.680;9.166;2023-09-30T20:28:02;21.50;73.20
6752;DHT22;3413;47.680;9.166;2023-09-30T20:33:07;21.50;73.30
6752;DHT22;3413;47.680;9.166;2023-09-30T20:38:09;21.50;74.00
6752;DHT22;3413;47.680;9.166;2023-09-30T20:43:11;21.40;73.20
6752;DHT22;3413;47.680;9.166;2023-09-30T20:48:13;21.30;73.20
6752;DHT22;3413;47.680;9.166;2023-09-30T20:53:15;21.20;73.20
6752;DHT22;3413;47.680;9.166;2023-09-30T20:58:17;21.00;73.30
6752;DHT22;3413;47.680;9.166;2023-09-30T21:03:19;21.00;73.30
6752;DHT22;3413;47.680;9.166;2023-09-30T21:08:21;20.90;73.20
6752;DHT22;3413;47.680;9.166;2023-09-30T21:13:24;20.80;73.20
6752;DHT22;3413;47.680;9.166;2023-09-30T21:18:26;20.80;73.30
6752;DHT22;3413;47.680;9.166;2023-09-30T21:23:28;20.70;73.30
6752;DHT22;3413;47.680;9.166;2023-09-30T21:28:30;20.60;73.30
6752;DHT22;3413;47.680;9.166;2023-09-30T21:33:32;20.50;73.30
6752;DHT22;3413;47.680;9.166;2023-09-30T21:38:34;20.50;73.30
6752;DHT22;3413;47.680;9.166;2023-09-30T21:43:36;20.40;73.50
6752;DHT22;3413;47.680;9.166;2023-09-30T21:48:39;20.40;73.60
6752;DHT22;3413;47.680;9.166;2023-09-30T21:53:41;20.30;73.50
6752;DHT22;3413;47.680;9.166;2023-09-30T21:58:43;20.20;73.50
6752;DHT22;3413;47.680;9.166;2023-09-30T22:03:45;20.20;73.50
6752;DHT22;3413;47.680;9.166;2023-09-30T22:08:48;20.20;73.70
6752;DHT22;3413;47.680;9.166;2023-09-30T22:13:50;20.10;73.60
6752;DHT22;3413;47.680;9.166;2023-09-30T22:18:52;20.10;73.60
6752;DHT22;3413;47.680;9.166;2023-09-30T22:23:54;20.00;73.50
6752;DHT22;3413;47.680;9.166;2023-09-30T22:28:56;20.00;74.30
6752;DHT22;3413;47.680;9.166;2023-09-30T22:33:59;19.90;73.60
6752;DHT22;3413;47.680;9.166;2023-09-30T22:39:01;19.80;73.50
6752;DHT22;3413;47.680;9.166;2023-09-30T22:44:03;19.80;73.60
6752;DHT22;3413;47.680;9.166;2023-09-30T22:49:05;19.70;73.60
6752;DHT22;3413;47.680;9.166;2023-09-30T22:54:08;19.60;73.60
6752;DHT22;3413;47.680;9.166;2023-09-30T22:59:10;19.60;73.70
6752;DHT22;3413;47.680;9.166;2023-09-30T23:04:12;19.50;73.70
6752;DHT22;3413;47.680;9.166;2023-09-30T23:09:14;19.50;73.70
6752;DHT22;3413;47.680;9.166;2023-09-30T23:14:20;19.50;73.70
6752;DHT22;3413;47.680;9.166;2023-09-30T23:19:22;19.50;73.70
6752;DHT22;3413;47.680;9.166;2023-09-30T23:24:24;19.40;73.60
6752;DHT22;3413;47.680;9.166;2023-09-30T23:29:28;19.40;73.70
6752;DHT22;3413;47.680;9.166;2023-09-30T23:34:30;19.30;73.60
6752;DHT22;3413;47.680;9.166;2023-09-30T23:39:34;19.30;73.80
6752;DHT22;3413;47.680;9.166;2023-09-30T23:44:38;19.20;73.60
6752;DHT22;3413;47.680;9.166;2023-09-30T23:49:40;19.10;73.70
6752;DHT22;3413;47.680;9.166;2023-09-30T23:54:43;19.00;73.70
6752;DHT22;3413;47.680;9.166;2023-09-30T23:59:47;19.00;73.70
